sensor_id;sensor_type;location;lat;lon;timestamp;pressure;altitude;pressure_sealevel;temperature;humidity
54994;BME280;40891;47.242;8.648;2022-12-07T00:01:22;96443.28;;;3.12;95.57
54994;BME280;40891;47.242;8.648;2022-12-07T00:03:49;96441.59;;;3.25;95.27
54994;BME280;40891;47.242;8.648;2022-12-07T00:06:16;96436.13;;;3.22;95.97
54994;BME280;40891;47.242;8.648;2022-12-07T00:08:43;96438.91;;;3.18;95.42
54994;BME280;40891;47.242;8.648;2022-12-07T00:11:14;96433.53;;;3.01;96.67
54994;BME280;40891;47.242;8.648;2022-12-07T00:13:40;96438.63;;;3.02;97.45
54994;BME280;40891;47.242;8.648;2022-12-07T00:16:16;96443.19;;;3.23;97.00
54994;BME280;40891;47.242;8.648;2022-12-07T00:18:42;96440.44;;;3.26;96.02
54994;BME280;40891;47.242;8.648;2022-12-07T00:21:14;96435.41;;;3.14;96.34
54994;BME280;40891;47.242;8.648;2022-12-07T00:23:40;96433.47;;;3.08;96.22
54994;BME280;40891;47.242;8.648;2022-12-07T00:26:34;96435.50;;;3.00;97.58
54994;BME280;40891;47.242;8.648;2022-12-07T00:29:03;96433.00;;;3.20;96.37
54994;BME280;40891;47.242;8.648;2022-12-07T00:31:34;96429.41;;;3.30;95.03
54994;BME280;40891;47.242;8.648;2022-12-07T00:34:07;96424.28;;;3.32;95.24
54994;BME280;40891;47.242;8.648;2022-12-07T00:36:32;96425.19;;;3.15;95.95
54994;BME280;40891;47.242;8.648;2022-12-07T00:38:59;96425.06;;;3.29;95.89
54994;BME280;40891;47.242;8.648;2022-12-07T00:41:26;96429.03;;;3.28;96.53
54994;BME280;40891;47.242;8.648;2022-12-07T00:43:52;96430.63;;;3.25;96.06
54994;BME280;40891;47.242;8.648;2022-12-07T00:46:18;96425.97;;;3.15;96.19
54994;BME280;40891;47.242;8.648;2022-12-07T00:48:44;96433.09;;;3.09;97.56
54994;BME280;40891;47.242;8.648;2022-12-07T00:51:11;96422.59;;;2.94;97.70
54994;BME280;40891;47.242;8.648;2022-12-07T00:53:37;96410.28;;;3.16;96.79
54994;BME280;40891;47.242;8.648;2022-12-07T00:56:07;96412.53;;;3.28;96.28
54994;BME280;40891;47.242;8.648;2022-12-07T00:58:33;96418.94;;;3.14;96.34
54994;BME280;40891;47.242;8.648;2022-12-07T01:01:03;96411.97;;;3.03;97.56
54994;BME280;40891;47.242;8.648;2022-12-07T01:03:29;96410.34;;;3.09;97.44
54994;BME280;40891;47.242;8.648;2022-12-07T01:05:55;96414.91;;;3.26;96.85
54994;BME280;40891;47.242;8.648;2022-12-07T01:08:21;96417.72;;;3.15;97.32
54994;BME280;40891;47.242;8.648;2022-12-07T01:10:47;96420.47;;;3.19;96.72
54994;BME280;40891;47.242;8.648;2022-12-07T01:13:13;96415.88;;;3.02;96.34
54994;BME280;40891;47.242;8.648;2022-12-07T01:15:40;96419.88;;;2.87;97.00
54994;BME280;40891;47.242;8.648;2022-12-07T01:18:05;96424.66;;;2.79;97.04
54994;BME280;40891;47.242;8.648;2022-12-07T01:20:30;96413.94;;;2.99;97.64
54994;BME280;40891;47.242;8.648;2022-12-07T01:22:56;96422.19;;;2.95;97.14
54994;BME280;40891;47.242;8.648;2022-12-07T01:25:21;96424.44;;;3.14;96.95
54994;BME280;40891;47.242;8.648;2022-12-07T01:27:46;96425.84;;;3.33;96.74
54994;BME280;40891;47.242;8.648;2022-12-07T01:30:12;96417.31;;;3.20;96.17
54994;BME280;40891;47.242;8.648;2022-12-07T01:32:38;96422.72;;;3.31;95.89
54994;BME280;40891;47.242;8.648;2022-12-07T01:35:03;96424.69;;;3.30;94.37
54994;BME280;40891;47.242;8.648;2022-12-07T01:37:34;96422.78;;;3.24;94.70
54994;BME280;40891;47.242;8.648;2022-12-07T01:40:00;96418.03;;;3.28;94.60
54994;BME280;40891;47.242;8.648;2022-12-07T01:42:25;96418.03;;;3.28;94.17
54994;BME280;40891;47.242;8.648;2022-12-07T01:47:56;96415.31;;;3.24;94.97
54994;BME280;40891;47.242;8.648;2022-12-07T01:50:25;96407.78;;;3.35;93.91
54994;BME280;40891;47.242;8.648;2022-12-07T01:52:53;96415.28;;;3.28;95.22
54994;BME280;40891;47.242;8.648;2022-12-07T01:55:19;96407.16;;;3.14;96.18
54994;BME280;40891;47.242;8.648;2022-12-07T01:57:48;96414.19;;;3.18;95.95
54994;BME280;40891;47.242;8.648;2022-12-07T02:00:15;96418.16;;;3.14;96.28
54994;BME280;40891;47.242;8.648;2022-12-07T02:02:51;96409.22;;;3.03;96.72
54994;BME280;40891;47.242;8.648;2022-12-07T02:05:19;96410.72;;;3.11;96.03
54994;BME280;40891;47.242;8.648;2022-12-07T02:07:46;96410.78;;;3.00;97.04
54994;BME280;40891;47.242;8.648;2022-12-07T02:12:38;96401.31;;;3.08;96.78
54994;BME280;40891;47.242;8.648;2022-12-07T02:15:03;96409.59;;;3.05;97.23
54994;BME280;40891;47.242;8.648;2022-12-07T02:23:33;96394.59;;;3.16;96.89
54994;BME280;40891;47.242;8.648;2022-12-07T02:31:39;96382.75;;;3.26;97.09
54994;BME280;40891;47.242;8.648;2022-12-07T02:34:22;96385.94;;;3.18;97.78
54994;BME280;40891;47.242;8.648;2022-12-07T02:36:55;96391.41;;;3.21;97.60
54994;BME280;40891;47.242;8.648;2022-12-07T02:42:00;96392.22;;;3.15;98.04
54994;BME280;40891;47.242;8.648;2022-12-07T02:44:28;96388.72;;;3.14;98.83
54994;BME280;40891;47.242;8.648;2022-12-07T02:47:04;96385.25;;;3.07;98.14
54994;BME280;40891;47.242;8.648;2022-12-07T02:49:32;96395.53;;;2.96;99.35
54994;BME280;40891;47.242;8.648;2022-12-07T02:51:58;96385.34;;;2.93;100.00
54994;BME280;40891;47.242;8.648;2022-12-07T02:54:23;96385.66;;;3.02;99.29
54994;BME280;40891;47.242;8.648;2022-12-07T03:05:22;96385.25;;;3.07;97.66
54994;BME280;40891;47.242;8.648;2022-12-07T03:08:01;96373.84;;;3.12;98.34
54994;BME280;40891;47.242;8.648;2022-12-07T03:13:50;96365.91;;;3.17;97.76
54994;BME280;40891;47.242;8.648;2022-12-07T03:16:27;96370.97;;;3.22;96.41
54994;BME280;40891;47.242;8.648;2022-12-07T03:19:08;96373.47;;;3.06;97.25
54994;BME280;40891;47.242;8.648;2022-12-07T03:21:44;96371.09;;;3.12;97.51
54994;BME280;40891;47.242;8.648;2022-12-07T03:24:18;96369.56;;;3.04;98.10
54994;BME280;40891;47.242;8.648;2022-12-07T03:26:48;96364.75;;;3.18;97.17
54994;BME280;40891;47.242;8.648;2022-12-07T03:29:22;96376.56;;;3.12;97.33
54994;BME280;40891;47.242;8.648;2022-12-07T03:31:59;96377.38;;;3.09;98.06
54994;BME280;40891;47.242;8.648;2022-12-07T03:34:31;96375.44;;;3.06;97.56
54994;BME280;40891;47.242;8.648;2022-12-07T03:37:06;96381.28;;;3.08;98.27
54994;BME280;40891;47.242;8.648;2022-12-07T03:42:05;96365.53;;;3.15;98.36
54994;BME280;40891;47.242;8.648;2022-12-07T03:44:33;96368.72;;;3.14;99.17
54994;BME280;40891;47.242;8.648;2022-12-07T03:49:52;96360.47;;;3.14;99.24
54994;BME280;40891;47.242;8.648;2022-12-07T03:52:42;96362.41;;;3.17;98.91
54994;BME280;40891;47.242;8.648;2022-12-07T03:57:37;96371.03;;;3.19;98.77
54994;BME280;40891;47.242;8.648;2022-12-07T04:00:04;96374.16;;;3.21;99.33
54994;BME280;40891;47.242;8.648;2022-12-07T04:02:31;96370.19;;;3.22;99.68
54994;BME280;40891;47.242;8.648;2022-12-07T04:04:57;96368.66;;;3.21;100.00
54994;BME280;40891;47.242;8.648;2022-12-07T04:07:23;96367.06;;;3.20;100.00
54994;BME280;40891;47.242;8.648;2022-12-07T04:09:48;96369.81;;;3.23;100.00
54994;BME280;40891;47.242;8.648;2022-12-07T04:12:14;96370.19;;;3.25;100.00
54994;BME280;40891;47.242;8.648;2022-12-07T04:14:39;96373.72;;;3.26;100.00
54994;BME280;40891;47.242;8.648;2022-12-07T04:17:04;96377.25;;;3.26;100.00
54994;BME280;40891;47.242;8.648;2022-12-07T04:19:33;96369.03;;;3.23;100.00
54994;BME280;40891;47.242;8.648;2022-12-07T04:22:00;96366.69;;;3.21;100.00
54994;BME280;40891;47.242;8.648;2022-12-07T04:24:27;96371.41;;;3.17;100.00
54994;BME280;40891;47.242;8.648;2022-12-07T04:26:53;96371.03;;;3.19;100.00
54994;BME280;40891;47.242;8.648;2022-12-07T04:29:19;96364.38;;;3.13;100.00
54994;BME280;40891;47.242;8.648;2022-12-07T04:31:45;96372.63;;;3.16;100.00
54994;BME280;40891;47.242;8.648;2022-12-07T04:34:11;96366.34;;;3.16;100.00
54994;BME280;40891;47.242;8.648;2022-12-07T04:36:37;96372.56;;;3.20;100.00
54994;BME280;40891;47.242;8.648;2022-12-07T04:39:04;96373.72;;;3.26;100.00
54994;BME280;40891;47.242;8.648;2022-12-07T04:41:30;96368.59;;;3.24;100.00
54994;BME280;40891;47.242;8.648;2022-12-07T04:43:58;96377.63;;;3.25;100.00
54994;BME280;40891;47.242;8.648;2022-12-07T04:46:25;96374.50;;;3.26;100.00
54994;BME280;40891;47.242;8.648;2022-12-07T04:48:52;96368.59;;;3.28;100.00
54994;BME280;40891;47.242;8.648;2022-12-07T04:51:27;96360.78;;;3.23;99.18
54994;BME280;40891;47.242;8.648;2022-12-07T04:53:53;96362.25;;;3.34;97.84
54994;BME280;40891;47.242;8.648;2022-12-07T04:56:19;96364.84;;;3.52;97.01
54994;BME280;40891;47.242;8.648;2022-12-07T04:58:46;96363.03;;;3.35;96.43
54994;BME280;40891;47.242;8.648;2022-12-07T05:01:12;96369.34;;;3.32;97.48
54994;BME280;40891;47.242;8.648;2022-12-07T05:03:38;96369.06;;;3.19;97.80
54994;BME280;40891;47.242;8.648;2022-12-07T05:06:05;96369.03;;;3.23;97.94
54994;BME280;40891;47.242;8.648;2022-12-07T05:08:32;96364.75;;;3.18;98.03
54994;BME280;40891;47.242;8.648;2022-12-07T05:10:58;96370.53;;;3.31;97.27
54994;BME280;40891;47.242;8.648;2022-12-07T05:13:23;96369.34;;;3.32;96.57
54994;BME280;40891;47.242;8.648;2022-12-07T05:15:48;96376.03;;;3.31;97.36
54994;BME280;40891;47.242;8.648;2022-12-07T05:18:14;96368.47;;;3.38;97.78
54994;BME280;40891;47.242;8.648;2022-12-07T05:20:40;96367.69;;;3.41;96.83
54994;BME280;40891;47.242;8.648;2022-12-07T05:23:06;96366.06;;;3.48;96.93
54994;BME280;40891;47.242;8.648;2022-12-07T05:25:31;96367.72;;;3.38;96.77
54994;BME280;40891;47.242;8.648;2022-12-07T05:28:00;96369.63;;;3.41;96.43
54994;BME280;40891;47.242;8.648;2022-12-07T05:30:26;96370.63;;;3.61;95.02
54994;BME280;40891;47.242;8.648;2022-12-07T05:32:52;96371.66;;;3.37;95.33
54994;BME280;40891;47.242;8.648;2022-12-07T05:35:17;96366.44;;;3.50;95.38
54994;BME280;40891;47.242;8.648;2022-12-07T05:37:43;96371.50;;;3.55;95.21
54994;BME280;40891;47.242;8.648;2022-12-07T05:40:09;96371.09;;;3.56;95.52
54994;BME280;40891;47.242;8.648;2022-12-07T05:42:35;96369.97;;;3.50;95.11
54994;BME280;40891;47.242;8.648;2022-12-07T05:45:00;96362.84;;;3.53;95.98
54994;BME280;40891;47.242;8.648;2022-12-07T05:47:26;96369.19;;;3.50;96.11
54994;BME280;40891;47.242;8.648;2022-12-07T05:49:51;96375.47;;;3.50;96.88
54994;BME280;40891;47.242;8.648;2022-12-07T05:52:17;96368.59;;;3.28;97.96
54994;BME280;40891;47.242;8.648;2022-12-07T05:54:42;96372.50;;;3.30;98.34
54994;BME280;40891;47.242;8.648;2022-12-07T05:57:08;96375.97;;;3.34;98.20
54994;BME280;40891;47.242;8.648;2022-12-07T05:59:33;96374.09;;;3.24;99.21
54994;BME280;40891;47.242;8.648;2022-12-07T06:02:01;96376.78;;;3.31;98.78
54994;BME280;40891;47.242;8.648;2022-12-07T06:04:29;96386.59;;;3.36;99.28
54994;BME280;40891;47.242;8.648;2022-12-07T06:06:55;96375.63;;;3.32;99.52
54994;BME280;40891;47.242;8.648;2022-12-07T06:09:21;96374.81;;;3.32;99.18
54994;BME280;40891;47.242;8.648;2022-12-07T06:11:48;96377.50;;;3.42;98.95
54994;BME280;40891;47.242;8.648;2022-12-07T06:14:32;96371.69;;;3.33;99.59
54994;BME280;40891;47.242;8.648;2022-12-07T06:16:58;96373.53;;;3.43;98.83
54994;BME280;40891;47.242;8.648;2022-12-07T06:19:23;96377.13;;;3.37;99.06
54994;BME280;40891;47.242;8.648;2022-12-07T06:21:48;96376.72;;;3.42;99.00
54994;BME280;40891;47.242;8.648;2022-12-07T06:24:15;96373.97;;;3.42;99.03
54994;BME280;40891;47.242;8.648;2022-12-07T06:26:40;96376.41;;;3.33;99.35
54994;BME280;40891;47.242;8.648;2022-12-07T06:29:06;96378.44;;;3.22;99.66
54994;BME280;40891;47.242;8.648;2022-12-07T06:31:32;96373.97;;;3.42;99.44
54994;BME280;40891;47.242;8.648;2022-12-07T06:34:02;96371.94;;;3.50;99.46
54994;BME280;40891;47.242;8.648;2022-12-07T06:36:28;96374.09;;;3.28;100.00
54994;BME280;40891;47.242;8.648;2022-12-07T06:38:54;96378.00;;;3.30;100.00
54994;BME280;40891;47.242;8.648;2022-12-07T06:41:20;96375.31;;;3.20;100.00
54994;BME280;40891;47.242;8.648;2022-12-07T06:43:45;96376.84;;;3.28;100.00
54994;BME280;40891;47.242;8.648;2022-12-07T06:46:11;96382.84;;;3.12;100.00
54994;BME280;40891;47.242;8.648;2022-12-07T06:48:36;96382.75;;;3.23;100.00
54994;BME280;40891;47.242;8.648;2022-12-07T06:51:02;96375.63;;;3.29;100.00
54994;BME280;40891;47.242;8.648;2022-12-07T06:53:27;96385.88;;;3.25;100.00
54994;BME280;40891;47.242;8.648;2022-12-07T06:55:53;96380.91;;;3.09;100.00
54994;BME280;40891;47.242;8.648;2022-12-07T06:58:18;96381.19;;;3.22;100.00
54994;BME280;40891;47.242;8.648;2022-12-07T07:00:44;96384.03;;;3.08;100.00
54994;BME280;40891;47.242;8.648;2022-12-07T07:03:10;96388.78;;;3.07;100.00
54994;BME280;40891;47.242;8.648;2022-12-07T07:05:35;96383.63;;;3.13;100.00
54994;BME280;40891;47.242;8.648;2022-12-07T07:08:01;96389.78;;;3.27;100.00
54994;BME280;40891;47.242;8.648;2022-12-07T07:10:26;96388.72;;;3.14;100.00
54994;BME280;40891;47.242;8.648;2022-12-07T07:12:52;96389.16;;;3.06;100.00
54994;BME280;40891;47.242;8.648;2022-12-07T07:15:17;96388.06;;;2.96;100.00
54994;BME280;40891;47.242;8.648;2022-12-07T07:17:43;96393.44;;;3.10;100.00
54994;BME280;40891;47.242;8.648;2022-12-07T07:20:08;96392.75;;;2.99;100.00
54994;BME280;40891;47.242;8.648;2022-12-07T07:22:34;96383.28;;;3.04;100.00
54994;BME280;40891;47.242;8.648;2022-12-07T07:24:59;96388.41;;;3.02;100.00
54994;BME280;40891;47.242;8.648;2022-12-07T07:27:25;96393.47;;;3.07;100.00
54994;BME280;40891;47.242;8.648;2022-12-07T07:29:50;96387.13;;;3.17;100.00
54994;BME280;40891;47.242;8.648;2022-12-07T07:32:15;96386.63;;;3.29;100.00
54994;BME280;40891;47.242;8.648;2022-12-07T07:34:41;96380.81;;;3.20;100.00
54994;BME280;40891;47.242;8.648;2022-12-07T07:37:06;96379.66;;;3.17;100.00
54994;BME280;40891;47.242;8.648;2022-12-07T07:39:32;96386.66;;;3.25;100.00
54994;BME280;40891;47.242;8.648;2022-12-07T07:41:57;96389.47;;;3.18;100.00
54994;BME280;40891;47.242;8.648;2022-12-07T07:44:23;96391.03;;;3.19;100.00
54994;BME280;40891;47.242;8.648;2022-12-07T07:46:48;96389.88;;;3.17;100.00
54994;BME280;40891;47.242;8.648;2022-12-07T07:49:13;96388.31;;;3.16;100.00
54994;BME280;40891;47.242;8.648;2022-12-07T07:51:39;96399.34;;;3.12;100.00
54994;BME280;40891;47.242;8.648;2022-12-07T07:54:04;96403.66;;;3.10;100.00
54994;BME280;40891;47.242;8.648;2022-12-07T07:56:30;96404.00;;;3.15;100.00
54994;BME280;40891;47.242;8.648;2022-12-07T07:58:55;96393.19;;;3.42;100.00
54994;BME280;40891;47.242;8.648;2022-12-07T08:01:21;96399.19;;;3.30;100.00
54994;BME280;40891;47.242;8.648;2022-12-07T08:03:46;96407.09;;;3.21;100.00
54994;BME280;40891;47.242;8.648;2022-12-07T08:06:12;96404.78;;;3.19;100.00
54994;BME280;40891;47.242;8.648;2022-12-07T08:08:38;96395.56;;;3.40;100.00
54994;BME280;40891;47.242;8.648;2022-12-07T08:11:07;96404.59;;;3.40;100.00
54994;BME280;40891;47.242;8.648;2022-12-07T08:13:33;96403.06;;;3.36;100.00
54994;BME280;40891;47.242;8.648;2022-12-07T08:16:03;96403.06;;;3.36;100.00
54994;BME280;40891;47.242;8.648;2022-12-07T08:18:29;96404.63;;;3.37;100.00
54994;BME280;40891;47.242;8.648;2022-12-07T08:21:01;96406.25;;;3.27;100.00
54994;BME280;40891;47.242;8.648;2022-12-07T08:23:26;96408.47;;;3.47;100.00
54994;BME280;40891;47.242;8.648;2022-12-07T08:25:52;96402.94;;;3.50;100.00
54994;BME280;40891;47.242;8.648;2022-12-07T08:28:17;96410.06;;;3.44;100.00
54994;BME280;40891;47.242;8.648;2022-12-07T08:30:42;96414.06;;;3.32;100.00
54994;BME280;40891;47.242;8.648;2022-12-07T08:33:09;96417.19;;;3.38;100.00
54994;BME280;40891;47.242;8.648;2022-12-07T08:35:35;96412.00;;;3.47;100.00
54994;BME280;40891;47.242;8.648;2022-12-07T08:38:01;96412.25;;;3.60;100.00
54994;BME280;40891;47.242;8.648;2022-12-07T08:40:27;96407.47;;;3.67;100.00
54994;BME280;40891;47.242;8.648;2022-12-07T08:42:53;96408.88;;;3.45;100.00
54994;BME280;40891;47.242;8.648;2022-12-07T08:45:20;96406.94;;;3.42;100.00
54994;BME280;40891;47.242;8.648;2022-12-07T08:48:00;96402.03;;;3.64;100.00
54994;BME280;40891;47.242;8.648;2022-12-07T08:50:27;96409.13;;;3.61;100.00
54994;BME280;40891;47.242;8.648;2022-12-07T08:52:55;96412.22;;;3.67;100.00
54994;BME280;40891;47.242;8.648;2022-12-07T08:55:22;96403.63;;;3.61;100.00
54994;BME280;40891;47.242;8.648;2022-12-07T08:57:47;96408.81;;;3.52;100.00
54994;BME280;40891;47.242;8.648;2022-12-07T09:00:13;96411.88;;;3.61;100.00
54994;BME280;40891;47.242;8.648;2022-12-07T09:02:39;96409.88;;;3.65;100.00
54994;BME280;40891;47.242;8.648;2022-12-07T09:05:05;96403.94;;;3.70;100.00
54994;BME280;40891;47.242;8.648;2022-12-07T09:07:32;96411.38;;;3.73;100.00
54994;BME280;40891;47.242;8.648;2022-12-07T09:09:58;96406.25;;;3.75;100.00
54994;BME280;40891;47.242;8.648;2022-12-07T09:12:24;96414.00;;;3.84;100.00
54994;BME280;40891;47.242;8.648;2022-12-07T09:14:49;96412.16;;;3.74;100.00
54994;BME280;40891;47.242;8.648;2022-12-07T09:17:14;96412.22;;;3.67;100.00
54994;BME280;40891;47.242;8.648;2022-12-07T09:19:40;96417.69;;;3.70;100.00
54994;BME280;40891;47.242;8.648;2022-12-07T09:22:07;96413.34;;;3.69;100.00
54994;BME280;40891;47.242;8.648;2022-12-07T09:24:33;96414.38;;;3.86;100.00
54994;BME280;40891;47.242;8.648;2022-12-07T09:26:59;96410.94;;;3.78;100.00
54994;BME280;40891;47.242;8.648;2022-12-07T09:29:25;96409.72;;;3.83;100.00
54994;BME280;40891;47.242;8.648;2022-12-07T09:31:51;96419.09;;;3.85;100.00
54994;BME280;40891;47.242;8.648;2022-12-07T09:34:16;96416.44;;;3.75;100.00
54994;BME280;40891;47.242;8.648;2022-12-07T09:36:42;96423.53;;;3.72;100.00
54994;BME280;40891;47.242;8.648;2022-12-07T09:39:08;96423.16;;;3.74;100.00
54994;BME280;40891;47.242;8.648;2022-12-07T09:41:37;96415.66;;;3.78;100.00
54994;BME280;40891;47.242;8.648;2022-12-07T09:44:06;96421.94;;;3.78;100.00
54994;BME280;40891;47.242;8.648;2022-12-07T09:46:37;96423.91;;;3.74;100.00
54994;BME280;40891;47.242;8.648;2022-12-07T09:49:04;96411.38;;;3.73;100.00
54994;BME280;40891;47.242;8.648;2022-12-07T09:51:31;96423.84;;;3.81;100.00
54994;BME280;40891;47.242;8.648;2022-12-07T09:53:58;96412.03;;;3.84;100.00
54994;BME280;40891;47.242;8.648;2022-12-07T09:56:24;96413.56;;;3.89;100.00
54994;BME280;40891;47.242;8.648;2022-12-07T09:58:54;96406.53;;;3.84;100.00
54994;BME280;40891;47.242;8.648;2022-12-07T10:01:23;96409.78;;;3.76;100.00
54994;BME280;40891;47.242;8.648;2022-12-07T10:06:15;96397.66;;;3.70;100.00
54994;BME280;40891;47.242;8.648;2022-12-07T10:08:40;96402.78;;;3.68;100.00
54994;BME280;40891;47.242;8.648;2022-12-07T10:11:08;96408.69;;;3.66;100.00
54994;BME280;40891;47.242;8.648;2022-12-07T10:13:45;96402.81;;;3.64;100.00
54994;BME280;40891;47.242;8.648;2022-12-07T10:18:53;96404.00;;;3.63;100.00
54994;BME280;40891;47.242;8.648;2022-12-07T10:21:24;96403.66;;;3.58;100.00
54994;BME280;40891;47.242;8.648;2022-12-07T10:24:14;96404.06;;;3.56;100.00
54994;BME280;40891;47.242;8.648;2022-12-07T10:31:39;96396.94;;;3.62;100.00
54994;BME280;40891;47.242;8.648;2022-12-07T10:34:20;96393.75;;;3.67;100.00
54994;BME280;40891;47.242;8.648;2022-12-07T10:36:47;96389.00;;;3.71;100.00
54994;BME280;40891;47.242;8.648;2022-12-07T10:39:15;96383.13;;;3.69;100.00
54994;BME280;40891;47.242;8.648;2022-12-07T10:42:01;96381.13;;;3.73;100.00
54994;BME280;40891;47.242;8.648;2022-12-07T10:44:29;96381.88;;;3.77;100.00
54994;BME280;40891;47.242;8.648;2022-12-07T10:49:52;96368.56;;;3.72;100.00
54994;BME280;40891;47.242;8.648;2022-12-07T11:00:43;96351.53;;;3.84;100.00
54994;BME280;40891;47.242;8.648;2022-12-07T11:03:21;96353.94;;;3.82;100.00
54994;BME280;40891;47.242;8.648;2022-12-07T11:14:10;96338.25;;;3.79;100.00
54994;BME280;40891;47.242;8.648;2022-12-07T11:16:54;96332.09;;;3.68;100.00
54994;BME280;40891;47.242;8.648;2022-12-07T11:22:04;96321.91;;;3.65;100.00
54994;BME280;40891;47.242;8.648;2022-12-07T11:29:53;96325.56;;;3.89;100.00
54994;BME280;40891;47.242;8.648;2022-12-07T11:32:44;96323.53;;;3.93;100.00
54994;BME280;40891;47.242;8.648;2022-12-07T11:37:43;96323.97;;;3.91;100.00
54994;BME280;40891;47.242;8.648;2022-12-07T11:43:18;96313.75;;;3.92;100.00
54994;BME280;40891;47.242;8.648;2022-12-07T11:46:12;96313.69;;;3.95;100.00
54994;BME280;40891;47.242;8.648;2022-12-07T11:48:46;96311.72;;;3.96;100.00
54994;BME280;40891;47.242;8.648;2022-12-07T11:51:18;96306.69;;;3.91;100.00
54994;BME280;40891;47.242;8.648;2022-12-07T11:53:53;96308.88;;;4.06;100.00
54994;BME280;40891;47.242;8.648;2022-12-07T11:56:22;96307.38;;;3.98;100.00
54994;BME280;40891;47.242;8.648;2022-12-07T12:01:26;96297.59;;;3.97;100.00
54994;BME280;40891;47.242;8.648;2022-12-07T12:06:22;96292.53;;;3.92;100.00
54994;BME280;40891;47.242;8.648;2022-12-07T12:09:04;96298.03;;;3.92;100.00
54994;BME280;40891;47.242;8.648;2022-12-07T12:20:00;96285.38;;;3.98;100.00
54994;BME280;40891;47.242;8.648;2022-12-07T12:22:34;96285.34;;;4.02;100.00
54994;BME280;40891;47.242;8.648;2022-12-07T12:25:04;96290.06;;;4.01;100.00
54994;BME280;40891;47.242;8.648;2022-12-07T12:27:34;96282.59;;;4.02;100.00
54994;BME280;40891;47.242;8.648;2022-12-07T12:30:03;96282.19;;;4.03;100.00
54994;BME280;40891;47.242;8.648;2022-12-07T12:32:42;96275.94;;;3.99;100.00
54994;BME280;40891;47.242;8.648;2022-12-07T12:37:49;96261.13;;;3.90;100.00
54994;BME280;40891;47.242;8.648;2022-12-07T12:47:56;96271.22;;;4.00;100.00
54994;BME280;40891;47.242;8.648;2022-12-07T12:53:14;96256.25;;;4.04;100.00
54994;BME280;40891;47.242;8.648;2022-12-07T13:00:44;96260.53;;;4.05;100.00
54994;BME280;40891;47.242;8.648;2022-12-07T13:03:30;96260.91;;;4.07;100.00
54994;BME280;40891;47.242;8.648;2022-12-07T13:08:51;96252.38;;;3.98;100.00
54994;BME280;40891;47.242;8.648;2022-12-07T13:11:28;96247.59;;;4.02;100.00
54994;BME280;40891;47.242;8.648;2022-12-07T13:16:58;96240.84;;;4.07;100.00
54994;BME280;40891;47.242;8.648;2022-12-07T13:27:44;96233.28;;;4.14;100.00
54994;BME280;40891;47.242;8.648;2022-12-07T13:30:16;96226.72;;;4.08;100.00
54994;BME280;40891;47.242;8.648;2022-12-07T13:32:42;96228.44;;;4.26;100.00
54994;BME280;40891;47.242;8.648;2022-12-07T13:37:59;96219.31;;;4.29;100.00
54994;BME280;40891;47.242;8.648;2022-12-07T13:40:24;96218.28;;;4.19;100.00
54994;BME280;40891;47.242;8.648;2022-12-07T13:43:02;96216.31;;;4.20;100.00
54994;BME280;40891;47.242;8.648;2022-12-07T13:45:32;96214.34;;;4.20;100.00
54994;BME280;40891;47.242;8.648;2022-12-07T13:48:33;96214.41;;;4.17;100.00
54994;BME280;40891;47.242;8.648;2022-12-07T13:51:01;96208.84;;;4.47;100.00
54994;BME280;40891;47.242;8.648;2022-12-07T13:53:28;96218.13;;;4.56;100.00
54994;BME280;40891;47.242;8.648;2022-12-07T13:55:56;96208.97;;;4.63;100.00
54994;BME280;40891;47.242;8.648;2022-12-07T13:58:23;96216.47;;;4.36;100.00
54994;BME280;40891;47.242;8.648;2022-12-07T14:00:49;96208.56;;;4.38;100.00
54994;BME280;40891;47.242;8.648;2022-12-07T14:05:42;96217.91;;;4.21;100.00
54994;BME280;40891;47.242;8.648;2022-12-07T14:10:55;96212.69;;;4.26;100.00
54994;BME280;40891;47.242;8.648;2022-12-07T14:15:59;96212.31;;;4.24;100.00
54994;BME280;40891;47.242;8.648;2022-12-07T14:18:38;96202.72;;;4.36;100.00
54994;BME280;40891;47.242;8.648;2022-12-07T14:23:37;96209.22;;;4.49;100.00
54994;BME280;40891;47.242;8.648;2022-12-07T14:26:19;96195.13;;;4.43;100.00
54994;BME280;40891;47.242;8.648;2022-12-07T14:28:45;96195.91;;;4.44;100.00
54994;BME280;40891;47.242;8.648;2022-12-07T14:31:11;96199.97;;;4.36;100.00
54994;BME280;40891;47.242;8.648;2022-12-07T14:33:38;96202.31;;;4.37;100.00
54994;BME280;40891;47.242;8.648;2022-12-07T14:36:04;96200.75;;;4.36;99.46
54994;BME280;40891;47.242;8.648;2022-12-07T14:38:29;96204.84;;;4.25;99.18
54994;BME280;40891;47.242;8.648;2022-12-07T14:40:55;96192.28;;;4.24;100.00
54994;BME280;40891;47.242;8.648;2022-12-07T14:43:41;96201.38;;;4.21;100.00
54994;BME280;40891;47.242;8.648;2022-12-07T14:46:06;96204.97;;;4.18;100.00
54994;BME280;40891;47.242;8.648;2022-12-07T14:48:31;96202.22;;;4.18;100.00
54994;BME280;40891;47.242;8.648;2022-12-07T14:50:57;96203.38;;;4.17;100.00
54994;BME280;40891;47.242;8.648;2022-12-07T14:53:29;96206.53;;;4.19;100.00
54994;BME280;40891;47.242;8.648;2022-12-07T14:55:55;96199.00;;;4.23;100.00
54994;BME280;40891;47.242;8.648;2022-12-07T14:58:20;96190.66;;;4.26;100.00
54994;BME280;40891;47.242;8.648;2022-12-07T15:00:46;96196.25;;;4.23;100.00
54994;BME280;40891;47.242;8.648;2022-12-07T15:03:12;96202.94;;;4.22;100.00
54994;BME280;40891;47.242;8.648;2022-12-07T15:05:38;96198.28;;;4.19;100.00
54994;BME280;40891;47.242;8.648;2022-12-07T15:08:04;96195.47;;;4.22;100.00
54994;BME280;40891;47.242;8.648;2022-12-07T15:10:32;96196.72;;;4.18;100.00
54994;BME280;40891;47.242;8.648;2022-12-07T15:12:59;96192.38;;;4.17;100.00
54994;BME280;40891;47.242;8.648;2022-12-07T15:15:45;96193.34;;;4.06;100.00
54994;BME280;40891;47.242;8.648;2022-12-07T15:18:10;96191.72;;;4.09;100.00
54994;BME280;40891;47.242;8.648;2022-12-07T15:20:35;96186.16;;;4.12;100.00
54994;BME280;40891;47.242;8.648;2022-12-07T15:23:00;96194.09;;;4.07;100.00
54994;BME280;40891;47.242;8.648;2022-12-07T15:25:26;96189.38;;;4.07;100.00
54994;BME280;40891;47.242;8.648;2022-12-07T15:27:51;96189.59;;;3.93;100.00
54994;BME280;40891;47.242;8.648;2022-12-07T15:30:16;96189.66;;;3.90;100.00
54994;BME280;40891;47.242;8.648;2022-12-07T15:32:42;96192.50;;;3.83;100.00